Time;durP1;ratioP1;P1;durP2;ratioP2;P2;SDS_P1;SDS_P2;PMS_P1;PMS_P2;Temp;Humidity;BMP_temperature;BMP_pressure;BME280_temperature;BME280_humidity;BME280_pressure;Samples;Min_cycle;Max_cycle;Signal;HPM_P1;HPM_P2
2022/12/22 03:26:29;;;;;;;4.37;3.97;;;;;;;;;;4983019;28;20194;-61
2022/12/22 03:28:55;;;;;;;4.23;3.63;;;;;;;;;;4983933;28;20205;-61
2022/12/22 03:31:21;;;;;;;3.97;3.67;;;;;;;;;;4966531;28;20654;-61
2022/12/22 03:33:53;;;;;;;4.20;3.87;;;;;;;;;;4981411;28;20207;-61
2022/12/22 03:36:19;;;;;;;4.37;3.97;;;;;;;;;;4981269;28;20201;-61
2022/12/22 03:38:52;;;;;;;4.03;3.63;;;;;;;;;;4969341;28;20773;-60
2022/12/22 03:46:47;;;;;;;3.73;3.43;;;;;;;;;;4957054;28;20713;-61
2022/12/22 03:49:13;;;;;;;3.57;3.27;;;;;;;;;;4964342;28;20712;-61
2022/12/22 03:51:41;;;;;;;3.20;2.97;;;;;;;;;;4945580;28;20334;-61
2022/12/22 03:54:07;;;;;;;2.70;2.50;;;;;;;;;;4964254;28;20203;-60
2022/12/22 03:56:33;;;;;;;3.77;3.37;;;;;;;;;;4963062;28;20167;-60
2022/12/22 03:58:59;;;;;;;3.57;3.27;;;;;;;;;;4964222;28;20170;-60
2022/12/22 04:01:25;;;;;;;3.23;2.93;;;;;;;;;;4964018;28;20183;-60
2022/12/22 04:03:52;;;;;;;3.57;3.03;;;;;;;;;;4962269;28;20191;-60
2022/12/22 04:06:18;;;;;;;4.33;2.90;;;;;;;;;;4962745;28;20197;-61
2022/12/22 04:08:44;;;;;;;2.70;2.50;;;;;;;;;;4962847;28;20176;-60
2022/12/22 04:13:59;;;;;;;3.67;2.87;;;;;;;;;;4965290;28;20611;-60
2022/12/22 04:16:25;;;;;;;3.30;3.03;;;;;;;;;;4963156;28;20212;-61
2022/12/22 04:18:51;;;;;;;3.60;3.10;;;;;;;;;;4965853;28;20586;-60
2022/12/22 04:21:17;;;;;;;3.57;2.97;;;;;;;;;;4963348;28;20639;-61
2022/12/22 04:23:43;;;;;;;3.37;3.07;;;;;;;;;;4963208;28;20187;-60
2022/12/22 04:26:09;;;;;;;3.03;2.73;;;;;;;;;;4966653;28;20182;-60
2022/12/22 04:28:35;;;;;;;2.60;2.40;;;;;;;;;;4963313;28;20180;-60
2022/12/22 04:31:01;;;;;;;2.97;2.70;;;;;;;;;;4945379;28;20184;-61
2022/12/22 04:33:27;;;;;;;3.17;2.90;;;;;;;;;;4963895;28;20243;-60
2022/12/22 04:35:53;;;;;;;2.83;2.63;;;;;;;;;;4961817;28;20179;-60
2022/12/22 04:38:19;;;;;;;2.70;2.50;;;;;;;;;;4959673;28;20774;-60
2022/12/22 04:40:45;;;;;;;2.87;2.67;;;;;;;;;;4965158;28;20264;-61
2022/12/22 04:43:11;;;;;;;2.70;2.50;;;;;;;;;;4966740;28;20275;-61
2022/12/22 04:45:37;;;;;;;2.80;2.60;;;;;;;;;;4968492;28;20188;-61
2022/12/22 04:48:04;;;;;;;2.83;2.63;;;;;;;;;;4949282;28;20191;-60
2022/12/22 04:50:30;;;;;;;2.60;2.40;;;;;;;;;;4967728;28;20183;-60
2022/12/22 04:52:56;;;;;;;2.60;2.40;;;;;;;;;;4946038;28;20215;-61
2022/12/22 04:55:22;;;;;;;2.67;2.43;;;;;;;;;;4967270;28;20187;-60
2022/12/22 04:57:48;;;;;;;2.60;2.10;;;;;;;;;;4946616;28;20276;-61
2022/12/22 05:00:14;;;;;;;2.57;2.37;;;;;;;;;;4966008;28;20211;-60
2022/12/22 05:02:40;;;;;;;2.73;2.17;;;;;;;;;;4967057;28;20579;-61
2022/12/22 05:05:06;;;;;;;2.83;2.63;;;;;;;;;;4967519;28;20184;-61
2022/12/22 05:07:32;;;;;;;2.30;2.10;;;;;;;;;;4962619;28;20711;-60
2022/12/22 05:09:58;;;;;;;2.80;2.60;;;;;;;;;;4967435;28;20191;-61
2022/12/22 05:15:09;;;;;;;3.07;2.17;;;;;;;;;;4959025;28;20237;-61
2022/12/22 05:17:35;;;;;;;2.33;2.13;;;;;;;;;;4967065;28;20203;-61
2022/12/22 05:20:01;;;;;;;2.77;2.57;;;;;;;;;;4949501;28;20278;-60
2022/12/22 05:22:27;;;;;;;2.47;2.27;;;;;;;;;;4964036;28;20188;-60
2022/12/22 05:24:53;;;;;;;2.60;2.37;;;;;;;;;;4965126;28;20195;-61
2022/12/22 05:27:19;;;;;;;3.23;2.93;;;;;;;;;;4969311;28;20222;-60
2022/12/22 05:29:45;;;;;;;3.17;2.93;;;;;;;;;;4968176;28;20402;-61
2022/12/22 05:32:12;;;;;;;2.23;1.90;;;;;;;;;;4965052;28;20187;-59
2022/12/22 05:34:38;;;;;;;4.57;2.20;;;;;;;;;;4965976;28;20286;-61
2022/12/22 05:37:04;;;;;;;2.20;2.00;;;;;;;;;;4963756;28;20579;-61
2022/12/22 05:39:30;;;;;;;2.40;2.20;;;;;;;;;;4964133;28;20718;-60
2022/12/22 05:41:56;;;;;;;2.00;1.90;;;;;;;;;;4965102;28;20183;-60
2022/12/22 05:44:22;;;;;;;2.30;2.13;;;;;;;;;;4943304;28;20192;-61
2022/12/22 05:46:51;;;;;;;2.23;1.73;;;;;;;;;;4959565;28;20192;-61
2022/12/22 05:49:17;;;;;;;2.43;2.23;;;;;;;;;;4962737;28;20215;-60
2022/12/22 05:51:43;;;;;;;2.77;2.47;;;;;;;;;;4958435;28;20722;-61
2022/12/22 05:54:09;;;;;;;2.70;2.50;;;;;;;;;;4942697;28;20255;-60
2022/12/22 05:56:35;;;;;;;2.83;2.53;;;;;;;;;;4960260;28;20275;-62
2022/12/22 05:59:01;;;;;;;2.43;2.20;;;;;;;;;;4960417;28;20188;-61
2022/12/22 06:01:27;;;;;;;2.47;2.27;;;;;;;;;;4963474;28;20211;-60
2022/12/22 06:03:53;;;;;;;2.57;2.37;;;;;;;;;;4959827;28;20646;-61
2022/12/22 06:06:19;;;;;;;3.40;1.90;;;;;;;;;;4960423;28;20573;-61
2022/12/22 06:08:45;;;;;;;2.93;2.30;;;;;;;;;;4965892;28;20195;-61
2022/12/22 06:11:11;;;;;;;2.77;2.57;;;;;;;;;;4963925;28;20662;-61
2022/12/22 06:13:37;;;;;;;2.00;1.90;;;;;;;;;;4965240;28;20207;-60
2022/12/22 06:16:04;;;;;;;2.20;2.00;;;;;;;;;;4963816;28;20176;-60
2022/12/22 06:18:30;;;;;;;2.47;2.27;;;;;;;;;;4964561;28;20204;-61
2022/12/22 06:20:56;;;;;;;2.60;2.40;;;;;;;;;;4957984;28;20656;-60
2022/12/22 06:23:22;;;;;;;3.07;2.77;;;;;;;;;;4948967;28;20191;-61
2022/12/22 06:25:59;;;;;;;2.70;2.50;;;;;;;;;;4942456;28;20184;-62
2022/12/22 06:28:25;;;;;;;2.60;2.40;;;;;;;;;;4964759;28;20310;-63
2022/12/22 06:30:52;;;;;;;2.47;2.27;;;;;;;;;;4957686;28;20271;-62
2022/12/22 06:33:18;;;;;;;2.77;2.57;;;;;;;;;;4959551;28;20745;-61
2022/12/22 06:35:44;;;;;;;2.53;2.33;;;;;;;;;;4934397;28;20227;-61
2022/12/22 06:38:10;;;;;;;3.10;2.80;;;;;;;;;;4954703;28;20294;-60
2022/12/22 06:40:36;;;;;;;2.80;2.60;;;;;;;;;;4967911;28;20216;-61
2022/12/22 06:43:09;;;;;;;3.47;3.17;;;;;;;;;;4968893;28;20164;-61
2022/12/22 06:45:39;;;;;;;3.20;2.90;;;;;;;;;;4968394;28;20199;-62
2022/12/22 06:48:05;;;;;;;2.80;2.60;;;;;;;;;;4966969;28;20713;-61
2022/12/22 06:50:31;;;;;;;3.00;2.80;;;;;;;;;;4966767;28;20670;-61
2022/12/22 06:52:57;;;;;;;3.07;2.60;;;;;;;;;;4966219;28;20220;-61
2022/12/22 06:55:23;;;;;;;2.93;2.67;;;;;;;;;;4968119;28;20191;-61
2022/12/22 06:57:49;;;;;;;3.20;2.97;;;;;;;;;;4961139;28;20588;-61
2022/12/22 07:00:15;;;;;;;3.90;2.90;;;;;;;;;;4966556;28;20542;-60
2022/12/22 07:02:41;;;;;;;4.53;3.40;;;;;;;;;;4966055;28;20187;-61
2022/12/22 07:05:08;;;;;;;3.40;3.10;;;;;;;;;;4968022;28;20641;-61
2022/12/22 07:07:34;;;;;;;2.80;2.60;;;;;;;;;;4944125;28;20188;-60
2022/12/22 07:10:00;;;;;;;3.00;2.80;;;;;;;;;;4966208;28;20180;-61
2022/12/22 07:12:27;;;;;;;3.93;3.03;;;;;;;;;;4964390;28;20176;-61
2022/12/22 07:14:53;;;;;;;3.17;2.87;;;;;;;;;;4948824;29;20502;-61
2022/12/22 07:17:19;;;;;;;3.23;2.93;;;;;;;;;;4959718;28;20620;-61
2022/12/22 07:19:45;;;;;;;3.43;3.13;;;;;;;;;;4964401;28;20707;-61
2022/12/22 07:22:11;;;;;;;2.90;2.70;;;;;;;;;;4961756;28;20180;-61
2022/12/22 07:24:37;;;;;;;3.40;2.83;;;;;;;;;;4950403;28;20424;-60
2022/12/22 07:27:03;;;;;;;3.57;3.23;;;;;;;;;;4964811;28;20946;-60
2022/12/22 07:29:29;;;;;;;3.70;3.40;;;;;;;;;;4949328;28;20651;-60
2022/12/22 07:31:55;;;;;;;4.57;3.50;;;;;;;;;;4941013;28;20219;-62
2022/12/22 07:34:21;;;;;;;4.10;3.70;;;;;;;;;;4960475;28;20195;-60
2022/12/22 07:36:47;;;;;;;9.83;3.97;;;;;;;;;;4965207;28;20353;-60
2022/12/22 07:39:14;;;;;;;4.03;3.63;;;;;;;;;;4966855;28;20233;-61
2022/12/22 07:44:24;;;;;;;4.30;3.90;;;;;;;;;;4966417;28;20327;-61
2022/12/22 07:46:50;;;;;;;4.40;4.00;;;;;;;;;;4967101;28;20206;-60
2022/12/22 07:52:21;;;;;;;4.47;4.07;;;;;;;;;;4924406;29;20671;-60
2022/12/22 07:54:47;;;;;;;5.00;4.47;;;;;;;;;;4925001;29;20244;-60
2022/12/22 07:57:13;;;;;;;5.50;5.07;;;;;;;;;;4927278;28;20254;-60
2022/12/22 07:59:39;;;;;;;5.47;4.87;;;;;;;;;;4964368;28;20388;-60
2022/12/22 08:02:05;;;;;;;6.17;5.23;;;;;;;;;;4965651;28;20176;-61
2022/12/22 08:04:31;;;;;;;6.47;5.87;;;;;;;;;;4965776;28;20192;-62
2022/12/22 08:06:57;;;;;;;5.83;5.23;;;;;;;;;;4946679;28;20198;-61
2022/12/22 08:09:23;;;;;;;6.43;5.83;;;;;;;;;;4963392;28;20275;-61
2022/12/22 08:11:49;;;;;;;7.57;5.97;;;;;;;;;;4964382;28;20197;-60
2022/12/22 08:14:15;;;;;;;6.83;6.03;;;;;;;;;;4956676;28;20671;-61
2022/12/22 08:16:41;;;;;;;8.70;6.03;;;;;;;;;;4964654;28;20187;-62
2022/12/22 08:19:07;;;;;;;7.63;6.07;;;;;;;;;;4950768;28;20207;-61
2022/12/22 08:21:33;;;;;;;6.87;6.17;;;;;;;;;;4966626;28;20662;-61
2022/12/22 08:23:59;;;;;;;7.37;6.37;;;;;;;;;;4966863;28;20721;-61
2022/12/22 08:26:36;;;;;;;7.70;6.90;;;;;;;;;;4948623;28;20271;-61
2022/12/22 08:29:07;;;;;;;8.27;6.97;;;;;;;;;;4958550;28;20205;-61
2022/12/22 08:31:34;;;;;;;7.20;6.50;;;;;;;;;;4970841;28;20211;-61
2022/12/22 08:34:01;;;;;;;7.13;6.40;;;;;;;;;;4976791;28;20207;-61
2022/12/22 08:36:29;;;;;;;8.47;7.40;;;;;;;;;;4967301;28;20188;-60
2022/12/22 08:38:55;;;;;;;7.57;6.77;;;;;;;;;;4950110;28;20219;-61
2022/12/22 08:41:48;;;;;;;8.10;7.13;;;;;;;;;;4969926;28;20565;-61
2022/12/22 08:44:07;;;;;;;8.23;7.23;;;;;;;;;;4977623;28;20196;-62
2022/12/22 08:46:33;;;;;;;9.00;7.70;;;;;;;;;;4970858;28;20244;-61
2022/12/22 08:49:00;;;;;;;10.07;7.83;;;;;;;;;;4951692;28;20183;-61
2022/12/22 08:51:26;;;;;;;9.20;7.47;;;;;;;;;;4969309;28;20242;-60
2022/12/22 08:53:52;;;;;;;10.37;8.10;;;;;;;;;;4949769;28;20207;-60
2022/12/22 08:56:18;;;;;;;10.50;8.17;;;;;;;;;;4968080;28;20195;-61
2022/12/22 08:58:44;;;;;;;10.33;8.13;;;;;;;;;;4968771;28;20183;-61
2022/12/22 09:01:17;;;;;;;10.37;8.30;;;;;;;;;;4940320;29;20869;-60
2022/12/22 09:03:47;;;;;;;10.10;8.67;;;;;;;;;;4968287;28;20187;-61
2022/12/22 09:06:13;;;;;;;9.27;7.73;;;;;;;;;;4952690;28;20521;-60
2022/12/22 09:08:39;;;;;;;11.03;8.23;;;;;;;;;;4955465;28;20187;-60
2022/12/22 09:11:05;;;;;;;12.80;8.97;;;;;;;;;;4953383;28;20184;-61
2022/12/22 09:13:31;;;;;;;11.23;7.97;;;;;;;;;;4958088;28;20202;-61
2022/12/22 09:16:03;;;;;;;11.83;8.20;;;;;;;;;;4959913;28;20168;-61
2022/12/22 09:18:29;;;;;;;10.57;8.43;;;;;;;;;;4959697;28;20297;-60
2022/12/22 09:20:55;;;;;;;11.77;9.23;;;;;;;;;;4967913;28;20244;-61
2022/12/22 09:23:21;;;;;;;12.07;9.03;;;;;;;;;;4949931;28;20194;-61
2022/12/22 09:25:47;;;;;;;10.53;8.53;;;;;;;;;;4969226;28;20207;-60
2022/12/22 09:28:13;;;;;;;11.70;8.20;;;;;;;;;;4966046;28;20188;-60
2022/12/22 09:30:39;;;;;;;11.50;9.23;;;;;;;;;;4969674;28;20184;-60
2022/12/22 09:33:05;;;;;;;11.20;8.40;;;;;;;;;;4964797;28;20200;-60
2022/12/22 09:35:31;;;;;;;10.60;8.73;;;;;;;;;;4970189;28;20594;-60
2022/12/22 09:37:57;;;;;;;10.00;8.17;;;;;;;;;;4947146;28;20191;-60
2022/12/22 09:40:31;;;;;;;11.67;9.17;;;;;;;;;;4969105;28;20188;-60
2022/12/22 09:42:57;;;;;;;10.07;7.80;;;;;;;;;;4968207;28;20675;-60
2022/12/22 09:45:23;;;;;;;9.87;8.13;;;;;;;;;;4967858;28;20300;-61
2022/12/22 09:47:52;;;;;;;10.57;8.70;;;;;;;;;;4966594;28;20273;-60
2022/12/22 09:50:22;;;;;;;10.50;8.73;;;;;;;;;;4987837;28;20713;-60
2022/12/22 09:52:53;;;;;;;12.53;8.80;;;;;;;;;;4986115;28;20237;-59
2022/12/22 09:55:25;;;;;;;9.97;7.93;;;;;;;;;;4988427;28;20171;-60
2022/12/22 09:57:55;;;;;;;10.33;7.70;;;;;;;;;;4987390;28;20642;-60
2022/12/22 10:00:25;;;;;;;11.70;8.67;;;;;;;;;;4986151;28;20186;-59
2022/12/22 10:02:57;;;;;;;10.43;8.43;;;;;;;;;;4982939;28;20262;-60
2022/12/22 10:05:37;;;;;;;12.50;9.07;;;;;;;;;;4977216;28;20175;-60
2022/12/22 10:08:14;;;;;;;10.40;7.83;;;;;;;;;;4985149;28;20189;-60
2022/12/22 10:10:41;;;;;;;11.33;9.07;;;;;;;;;;4983555;28;20266;-60
2022/12/22 10:13:12;;;;;;;11.63;8.90;;;;;;;;;;4967058;28;20211;-61
2022/12/22 10:15:39;;;;;;;9.90;8.33;;;;;;;;;;4986449;28;20250;-61
2022/12/22 10:18:25;;;;;;;11.37;8.77;;;;;;;;;;4987651;28;20205;-61
2022/12/22 10:21:06;;;;;;;11.87;9.20;;;;;;;;;;4985236;28;20194;-61
2022/12/22 10:23:34;;;;;;;13.27;9.23;;;;;;;;;;4982396;28;20258;-60
2022/12/22 10:26:32;;;;;;;10.70;8.90;;;;;;;;;;4965981;28;20187;-60
2022/12/22 10:29:15;;;;;;;11.27;9.40;;;;;;;;;;4943382;28;20234;-61
2022/12/22 10:32:04;;;;;;;11.93;9.40;;;;;;;;;;4970742;28;20171;-60
2022/12/22 10:34:31;;;;;;;11.70;9.40;;;;;;;;;;4965441;28;20211;-60
2022/12/22 10:36:59;;;;;;;11.77;9.00;;;;;;;;;;4986359;28;20187;-61
2022/12/22 10:39:37;;;;;;;12.93;9.43;;;;;;;;;;4973885;28;20294;-61
2022/12/22 10:42:13;;;;;;;14.40;10.37;;;;;;;;;;4950225;28;20180;-60
2022/12/22 10:44:40;;;;;;;12.63;10.00;;;;;;;;;;4948717;28;20580;-60
2022/12/22 10:47:19;;;;;;;13.90;10.00;;;;;;;;;;4950383;28;20628;-60
2022/12/22 10:49:46;;;;;;;12.23;10.17;;;;;;;;;;4966068;28;20182;-60
2022/12/22 10:52:18;;;;;;;13.97;9.93;;;;;;;;;;4962102;28;20183;-60
2022/12/22 10:54:45;;;;;;;12.73;9.83;;;;;;;;;;4961040;28;20611;-60
2022/12/22 10:57:14;;;;;;;14.80;10.70;;;;;;;;;;4966927;28;20212;-60
2022/12/22 10:59:47;;;;;;;14.13;10.57;;;;;;;;;;4963045;28;20211;-61
2022/12/22 11:02:29;;;;;;;13.70;10.43;;;;;;;;;;4948002;28;20192;-60
2022/12/22 11:05:00;;;;;;;13.23;10.57;;;;;;;;;;4945884;28;20274;-60
2022/12/22 11:07:27;;;;;;;14.97;10.23;;;;;;;;;;4939293;28;20185;-60
2022/12/22 11:09:53;;;;;;;14.93;10.77;;;;;;;;;;4944412;28;20744;-60
2022/12/22 11:12:19;;;;;;;14.27;10.60;;;;;;;;;;4963491;28;20242;-61
2022/12/22 11:14:48;;;;;;;15.70;11.83;;;;;;;;;;4947654;28;20230;-60
2022/12/22 11:17:14;;;;;;;15.40;10.57;;;;;;;;;;4966194;28;20183;-61
2022/12/22 11:19:41;;;;;;;16.37;11.43;;;;;;;;;;4965668;28;20514;-60
2022/12/22 11:22:26;;;;;;;15.23;11.20;;;;;;;;;;4966570;28;20168;-60
2022/12/22 11:24:55;;;;;;;16.37;10.23;;;;;;;;;;4966363;28;20274;-61
2022/12/22 11:27:27;;;;;;;16.80;11.50;;;;;;;;;;4965418;28;20194;-61
2022/12/22 11:29:55;;;;;;;14.90;10.67;;;;;;;;;;4966627;28;20583;-61
2022/12/22 11:32:40;;;;;;;16.63;11.87;;;;;;;;;;4958795;28;20188;-62
2022/12/22 11:35:21;;;;;;;14.00;11.33;;;;;;;;;;4943042;28;20187;-62
2022/12/22 11:37:50;;;;;;;17.37;11.23;;;;;;;;;;4964627;28;20183;-61
2022/12/22 11:40:34;;;;;;;17.20;12.33;;;;;;;;;;4964052;28;20223;-62
2022/12/22 11:43:16;;;;;;;15.27;11.60;;;;;;;;;;4961897;28;20710;-61
2022/12/22 11:45:50;;;;;;;16.50;11.87;;;;;;;;;;4965413;28;20184;-62
2022/12/22 11:48:22;;;;;;;18.53;12.37;;;;;;;;;;4964627;28;20345;-61
2022/12/22 11:50:49;;;;;;;18.37;12.40;;;;;;;;;;4965325;28;20195;-61
2022/12/22 11:53:15;;;;;;;15.60;11.60;;;;;;;;;;4947295;28;20219;-62
2022/12/22 11:55:41;;;;;;;16.70;11.53;;;;;;;;;;4965326;28;20186;-62
2022/12/22 11:58:31;;;;;;;17.00;11.43;;;;;;;;;;4961296;28;20180;-62
2022/12/22 12:01:09;;;;;;;17.43;11.03;;;;;;;;;;4945333;28;20189;-62
2022/12/22 12:03:54;;;;;;;15.23;10.17;;;;;;;;;;4962433;28;20180;-62
2022/12/22 12:06:25;;;;;;;17.53;11.67;;;;;;;;;;4962719;28;20283;-62
2022/12/22 12:08:57;;;;;;;13.07;10.10;;;;;;;;;;4964686;28;20179;-61
2022/12/22 12:11:35;;;;;;;15.13;10.47;;;;;;;;;;4963078;28;20199;-62
2022/12/22 12:14:11;;;;;;;17.60;11.67;;;;;;;;;;4962495;28;20239;-63
2022/12/22 12:16:47;;;;;;;11.50;9.50;;;;;;;;;;4969326;28;20187;-65
2022/12/22 12:19:22;;;;;;;16.63;10.87;;;;;;;;;;4943569;28;20379;-63
2022/12/22 12:21:54;;;;;;;15.43;10.87;;;;;;;;;;4960094;28;20187;-62
2022/12/22 12:24:33;;;;;;;14.00;10.77;;;;;;;;;;4961128;28;20179;-63
2022/12/22 12:27:17;;;;;;;17.10;11.43;;;;;;;;;;4962741;28;20187;-62
2022/12/22 12:29:49;;;;;;;14.67;10.77;;;;;;;;;;4941521;28;20199;-61
2022/12/22 12:32:18;;;;;;;15.20;11.40;;;;;;;;;;4962102;28;20218;-61
2022/12/22 12:34:49;;;;;;;15.40;10.57;;;;;;;;;;4981202;28;20233;-61
2022/12/22 12:37:20;;;;;;;18.50;12.60;;;;;;;;;;4967020;28;20643;-61
2022/12/22 12:40:05;;;;;;;15.87;11.90;;;;;;;;;;4966427;28;20219;-61
2022/12/22 12:42:39;;;;;;;14.63;10.60;;;;;;;;;;4965091;28;20180;-60
2022/12/22 12:45:26;;;;;;;16.80;11.83;;;;;;;;;;4966231;28;20187;-60
2022/12/22 12:47:52;;;;;;;15.20;12.00;;;;;;;;;;4954617;28;20249;-61
2022/12/22 12:50:32;;;;;;;14.30;11.80;;;;;;;;;;4964020;28;20192;-61
2022/12/22 12:52:58;;;;;;;16.13;12.40;;;;;;;;;;4962898;28;20425;-60
2022/12/22 12:55:40;;;;;;;17.73;12.23;;;;;;;;;;4965872;28;20650;-61
2022/12/22 12:58:09;;;;;;;16.93;12.97;;;;;;;;;;4947171;28;20218;-61
2022/12/22 13:00:36;;;;;;;14.30;11.90;;;;;;;;;;4963322;28;20904;-61
2022/12/22 13:03:02;;;;;;;16.07;12.33;;;;;;;;;;4966776;28;20203;-60
2022/12/22 13:05:32;;;;;;;16.03;11.67;;;;;;;;;;4951595;28;20184;-61
2022/12/22 13:08:14;;;;;;;14.50;11.30;;;;;;;;;;4948217;28;20188;-61
2022/12/22 13:10:40;;;;;;;15.10;11.70;;;;;;;;;;4952716;28;20179;-60
2022/12/22 13:13:10;;;;;;;13.20;11.30;;;;;;;;;;4941436;28;20742;-60
2022/12/22 13:15:37;;;;;;;14.70;11.53;;;;;;;;;;4951140;28;20625;-61
2022/12/22 13:18:23;;;;;;;13.03;10.47;;;;;;;;;;4967567;28;20200;-60
2022/12/22 13:20:55;;;;;;;16.27;11.20;;;;;;;;;;4949951;28;21356;-60
2022/12/22 13:23:21;;;;;;;14.90;11.30;;;;;;;;;;4967614;28;20868;-60
2022/12/22 13:25:47;;;;;;;14.67;11.53;;;;;;;;;;4976084;28;20226;-60
2022/12/22 13:28:17;;;;;;;12.83;10.83;;;;;;;;;;4943014;28;20180;-60
2022/12/22 13:30:57;;;;;;;17.43;12.17;;;;;;;;;;4969383;28;20507;-61
2022/12/22 13:33:24;;;;;;;12.77;10.83;;;;;;;;;;4965630;28;20247;-60
2022/12/22 13:35:51;;;;;;;12.97;10.30;;;;;;;;;;4966886;28;20662;-59
2022/12/22 13:38:29;;;;;;;15.77;9.93;;;;;;;;;;4964890;28;20635;-59
2022/12/22 13:40:57;;;;;;;12.63;10.10;;;;;;;;;;4963398;28;20769;-60
2022/12/22 13:43:23;;;;;;;12.23;9.83;;;;;;;;;;4949734;28;20191;-59
2022/12/22 13:45:50;;;;;;;12.80;11.50;;;;;;;;;;4967179;28;20779;-58
2022/12/22 13:48:19;;;;;;;11.77;9.87;;;;;;;;;;4964082;28;20222;-61
2022/12/22 13:50:50;;;;;;;13.93;11.57;;;;;;;;;;4947912;28;20242;-58
2022/12/22 13:53:29;;;;;;;12.90;10.40;;;;;;;;;;4962041;28;20257;-58
2022/12/22 13:55:55;;;;;;;14.67;9.80;;;;;;;;;;4977799;28;20183;-59
2022/12/22 13:58:25;;;;;;;15.83;10.37;;;;;;;;;;4960873;28;20176;-60
2022/12/22 14:01:14;;;;;;;12.13;10.53;;;;;;;;;;4964335;28;20548;-59
2022/12/22 14:03:48;;;;;;;14.53;10.57;;;;;;;;;;4967726;28;20556;-58
2022/12/22 14:06:25;;;;;;;13.37;10.77;;;;;;;;;;4949271;28;20183;-59
2022/12/22 14:08:51;;;;;;;12.57;9.53;;;;;;;;;;4965320;28;20564;-59
2022/12/22 14:11:17;;;;;;;11.40;10.13;;;;;;;;;;4963700;28;20263;-59
2022/12/22 14:13:43;;;;;;;13.53;10.63;;;;;;;;;;4965757;28;20662;-58
2022/12/22 14:16:13;;;;;;;10.00;8.90;;;;;;;;;;4965185;28;20592;-61
2022/12/22 14:18:39;;;;;;;12.47;10.03;;;;;;;;;;4965499;28;20195;-59
2022/12/22 14:21:12;;;;;;;10.70;9.60;;;;;;;;;;4966871;28;20188;-59
2022/12/22 14:23:40;;;;;;;13.10;10.10;;;;;;;;;;4966966;28;20557;-59
2022/12/22 14:26:08;;;;;;;12.43;9.77;;;;;;;;;;4935112;28;20268;-58
2022/12/22 14:28:48;;;;;;;11.83;9.30;;;;;;;;;;4959326;28;20180;-59
2022/12/22 14:31:15;;;;;;;11.10;9.37;;;;;;;;;;4969623;28;20175;-58
2022/12/22 14:33:49;;;;;;;10.20;9.07;;;;;;;;;;4967975;28;20195;-59
2022/12/22 14:36:23;;;;;;;11.33;9.90;;;;;;;;;;4963058;28;20539;-59
2022/12/22 14:38:51;;;;;;;11.43;9.20;;;;;;;;;;4963073;28;20227;-58
2022/12/22 14:44:04;;;;;;;13.30;9.57;;;;;;;;;;4963047;28;20238;-59
2022/12/22 14:46:30;;;;;;;15.20;9.27;;;;;;;;;;4964279;28;20187;-58
2022/12/22 14:48:59;;;;;;;12.37;9.50;;;;;;;;;;4963502;28;20183;-59
2022/12/22 14:51:29;;;;;;;10.83;8.17;;;;;;;;;;4963069;28;20749;-58
2022/12/22 14:54:01;;;;;;;9.17;8.23;;;;;;;;;;4961840;28;20196;-61
2022/12/22 14:56:27;;;;;;;10.47;8.57;;;;;;;;;;4963822;28;20203;-58
2022/12/22 14:59:07;;;;;;;9.90;8.30;;;;;;;;;;4962802;28;20651;-58
2022/12/22 15:01:33;;;;;;;10.73;8.53;;;;;;;;;;4963266;28;20188;-58
2022/12/22 15:04:02;;;;;;;12.17;9.43;;;;;;;;;;4958496;28;20194;-61
2022/12/22 15:06:30;;;;;;;9.77;8.27;;;;;;;;;;4960192;28;20227;-59
2022/12/22 15:09:02;;;;;;;9.87;8.47;;;;;;;;;;4964626;28;20287;-58
2022/12/22 15:11:30;;;;;;;10.33;8.87;;;;;;;;;;4964004;28;20228;-62
2022/12/22 15:13:56;;;;;;;11.57;9.20;;;;;;;;;;4948110;28;20202;-58
2022/12/22 15:16:22;;;;;;;8.87;7.63;;;;;;;;;;4965754;28;20231;-58
2022/12/22 15:18:49;;;;;;;12.70;8.90;;;;;;;;;;4966543;28;20618;-58
2022/12/22 15:21:16;;;;;;;11.93;9.57;;;;;;;;;;4963593;28;20211;-59
2022/12/22 15:23:42;;;;;;;10.37;8.63;;;;;;;;;;4966569;28;20660;-58
2022/12/22 15:26:08;;;;;;;9.90;8.00;;;;;;;;;;4962201;28;20168;-58
2022/12/22 15:28:34;;;;;;;11.80;8.90;;;;;;;;;;4965589;28;20230;-58
2022/12/22 15:31:01;;;;;;;10.57;8.30;;;;;;;;;;4964214;28;20663;-58
2022/12/22 15:33:37;;;;;;;9.83;8.60;;;;;;;;;;4952270;28;20200;-58
2022/12/22 15:36:03;;;;;;;12.03;9.20;;;;;;;;;;4956195;28;20647;-59
2022/12/22 15:38:29;;;;;;;10.53;9.20;;;;;;;;;;4957334;28;20172;-58
2022/12/22 15:40:55;;;;;;;11.20;8.50;;;;;;;;;;4966651;28;20212;-59
2022/12/22 15:43:34;;;;;;;10.23;8.20;;;;;;;;;;4957071;28;20262;-59
2022/12/22 15:46:00;;;;;;;9.77;8.77;;;;;;;;;;4956818;28;20188;-60
2022/12/22 15:48:45;;;;;;;10.10;8.97;;;;;;;;;;4965115;28;20188;-59
2022/12/22 15:51:23;;;;;;;11.30;9.10;;;;;;;;;;4963711;28;20227;-59
2022/12/22 15:53:50;;;;;;;11.93;9.17;;;;;;;;;;4965407;28;20215;-59
2022/12/22 15:56:20;;;;;;;10.60;9.50;;;;;;;;;;4967003;28;20203;-60
2022/12/22 15:58:46;;;;;;;11.77;9.93;;;;;;;;;;4962816;28;20220;-59
2022/12/22 16:01:13;;;;;;;11.23;9.43;;;;;;;;;;4966360;28;20170;-59
2022/12/22 16:03:39;;;;;;;13.13;10.03;;;;;;;;;;4964920;28;20227;-59
2022/12/22 16:06:07;;;;;;;12.88;11.50;;;;;;;;;;4962679;28;20476;-59
2022/12/22 16:08:36;;;;;;;12.00;10.47;;;;;;;;;;4962403;28;20207;-59
2022/12/22 16:11:02;;;;;;;11.13;9.97;;;;;;;;;;4961993;28;20208;-57
2022/12/22 16:13:29;;;;;;;12.10;10.40;;;;;;;;;;4963693;28;20472;-57
2022/12/22 16:15:55;;;;;;;15.23;10.93;;;;;;;;;;4964324;28;20438;-58
2022/12/22 16:18:21;;;;;;;12.60;11.23;;;;;;;;;;4965133;28;20684;-57
2022/12/22 16:20:51;;;;;;;13.67;11.03;;;;;;;;;;4965133;28;20168;-56
2022/12/22 16:23:19;;;;;;;15.60;12.60;;;;;;;;;;4963943;28;20706;-57
2022/12/22 16:25:45;;;;;;;12.60;10.53;;;;;;;;;;4965014;28;20274;-56
2022/12/22 16:28:17;;;;;;;13.50;10.97;;;;;;;;;;4964976;28;20447;-56
2022/12/22 16:30:43;;;;;;;14.43;10.93;;;;;;;;;;4966165;28;20597;-56
2022/12/22 16:33:13;;;;;;;13.80;11.37;;;;;;;;;;4966609;28;20538;-57
2022/12/22 16:35:39;;;;;;;13.20;11.80;;;;;;;;;;4965636;28;20522;-57
2022/12/22 16:38:05;;;;;;;13.23;11.17;;;;;;;;;;4965019;28;20188;-57
2022/12/22 16:40:32;;;;;;;15.03;11.23;;;;;;;;;;4970040;28;21003;-58
2022/12/22 16:43:00;;;;;;;11.73;10.47;;;;;;;;;;4967961;28;20758;-58
2022/12/22 16:45:27;;;;;;;11.87;10.43;;;;;;;;;;4970319;28;20188;-57
2022/12/22 16:47:57;;;;;;;12.43;11.23;;;;;;;;;;4947993;28;20575;-57
2022/12/22 16:50:26;;;;;;;11.33;9.93;;;;;;;;;;4964270;28;20460;-57
2022/12/22 16:52:52;;;;;;;11.73;10.53;;;;;;;;;;4967140;28;20180;-57
2022/12/22 16:55:19;;;;;;;11.23;10.03;;;;;;;;;;4970219;28;21362;-57
2022/12/22 16:57:45;;;;;;;10.03;8.90;;;;;;;;;;4968664;28;20168;-60
2022/12/22 17:00:15;;;;;;;10.00;9.00;;;;;;;;;;4969109;28;20180;-60
2022/12/22 17:02:43;;;;;;;11.83;9.90;;;;;;;;;;4950447;28;20185;-59
2022/12/22 17:05:18;;;;;;;12.27;9.50;;;;;;;;;;4952770;28;20226;-59
2022/12/22 17:07:44;;;;;;;9.80;8.83;;;;;;;;;;4951652;28;20207;-59
2022/12/22 17:10:13;;;;;;;9.87;8.40;;;;;;;;;;4970360;28;20612;-60
2022/12/22 17:12:40;;;;;;;9.43;8.43;;;;;;;;;;4967851;28;20195;-59
2022/12/22 17:15:06;;;;;;;10.67;8.53;;;;;;;;;;4970407;28;20210;-59
2022/12/22 17:17:32;;;;;;;9.50;8.47;;;;;;;;;;4969206;28;20191;-60
2022/12/22 17:19:58;;;;;;;9.10;8.13;;;;;;;;;;4969647;28;20191;-59
2022/12/22 17:22:27;;;;;;;8.60;7.63;;;;;;;;;;4964873;28;20627;-61
2022/12/22 17:24:55;;;;;;;8.27;6.93;;;;;;;;;;4966726;28;20180;-61
2022/12/22 17:27:22;;;;;;;7.50;6.77;;;;;;;;;;4947579;28;20196;-59
2022/12/22 17:29:52;;;;;;;8.10;6.93;;;;;;;;;;4951001;28;20663;-60
2022/12/22 17:32:28;;;;;;;9.30;7.13;;;;;;;;;;4967342;28;20596;-59
2022/12/22 17:34:54;;;;;;;7.13;6.43;;;;;;;;;;4945230;28;20207;-60
2022/12/22 17:37:21;;;;;;;8.13;6.97;;;;;;;;;;4966967;28;20256;-60
2022/12/22 17:39:50;;;;;;;8.60;6.17;;;;;;;;;;4970737;28;20226;-59
2022/12/22 17:42:20;;;;;;;8.20;6.43;;;;;;;;;;4963838;28;20931;-60
2022/12/22 17:44:47;;;;;;;7.20;6.50;;;;;;;;;;4959660;28;20184;-60
2022/12/22 17:47:14;;;;;;;8.13;6.57;;;;;;;;;;4955495;28;20693;-59
2022/12/22 17:49:41;;;;;;;7.47;6.47;;;;;;;;;;4952661;28;20188;-60
2022/12/22 17:52:15;;;;;;;6.93;5.93;;;;;;;;;;4959896;28;20259;-59
2022/12/22 17:54:41;;;;;;;7.30;6.63;;;;;;;;;;4954421;28;20208;-60
2022/12/22 17:57:10;;;;;;;8.00;6.80;;;;;;;;;;4963435;28;20172;-59
2022/12/22 17:59:36;;;;;;;7.27;6.57;;;;;;;;;;4967688;28;20635;-59
2022/12/22 18:02:02;;;;;;;7.83;7.03;;;;;;;;;;4960748;28;20184;-60
2022/12/22 18:04:28;;;;;;;7.93;6.50;;;;;;;;;;4952311;28;20283;-59
2022/12/22 18:06:54;;;;;;;7.67;6.90;;;;;;;;;;4961952;28;20267;-59
2022/12/22 18:09:25;;;;;;;7.43;6.20;;;;;;;;;;4960361;28;20214;-59
2022/12/22 18:11:51;;;;;;;8.37;7.20;;;;;;;;;;4968002;28;20226;-60
2022/12/22 18:14:19;;;;;;;8.23;7.40;;;;;;;;;;4968857;28;20207;-60
2022/12/22 18:16:45;;;;;;;7.83;7.07;;;;;;;;;;4948942;28;20184;-60
2022/12/22 18:19:11;;;;;;;7.53;6.73;;;;;;;;;;4955451;28;20192;-59
2022/12/22 18:21:37;;;;;;;8.53;7.10;;;;;;;;;;4962701;28;20643;-60
2022/12/22 18:24:03;;;;;;;9.07;6.87;;;;;;;;;;4957748;28;20210;-60
2022/12/22 18:26:30;;;;;;;7.93;7.13;;;;;;;;;;4950970;28;20696;-59
2022/12/22 18:28:56;;;;;;;9.37;7.40;;;;;;;;;;4949963;28;20188;-60